Terminal Aerodrome Forecast
Issued by NWS Tiyan, Guam

Current Version | Previous Version | Text Only | Print | Product List | Glossary On
Versions: 1 2 3 4 5 6 7 8 9 10 11 12 13 14 15 16 17 18 19 20 21 22 23 24 25 26 27 28 29 30
000
FTPQ31 PGUM 291720
TAFGUM
TAF
PGUM 291720Z 2918/3024 06012KT P6SM VCSH SCT020 SCT050
     FM300000 07015G25KT P6SM VCSH SCT022 SCT040
     FM300900 06011KT P6SM SCT020 SCT050 SCT120=

USA.gov is the U.S. government's official web portal to all federal, state and local government web resources and services.